Terminal Aerodrome Forecast
Issued by NWS

Home | Current Version | Previous Version | Text Only | Print | Product List | Glossary On
Versions: 1 2 3 4 5 6 7 8 9 10 11 12 13 14 15 16 17 18 19 20 21 22 23 24 25 26 27 28 29 30 31
000
FTUS45 KLKN 070541
TAFELY
TAF
KELY 070541Z 0706/0806 VRB06KT P6SM -RA OVC035
     FM071200 17010KT P6SM VCSH OVC040
     FM071800 17018G30KT P6SM VCTS BKN060CB
     FM080200 17010KT P6SM VCSH BKN060=

USA.gov is the U.S. government's official web portal to all federal, state and local government web resources and services.